sensor_id;sensor_type;location;lat;lon;timestamp;temperature;humidity
56771;DHT22;42641;59.794;17.616;2023-02-18T00:01:53;4.30;99.90
56771;DHT22;42641;59.794;17.616;2023-02-18T00:04:19;4.10;99.90
56771;DHT22;42641;59.794;17.616;2023-02-18T00:06:46;4.00;99.90
56771;DHT22;42641;59.794;17.616;2023-02-18T00:09:13;4.00;99.90
56771;DHT22;42641;59.794;17.616;2023-02-18T00:11:39;3.90;99.90
56771;DHT22;42641;59.794;17.616;2023-02-18T00:14:11;3.90;99.90
56771;DHT22;42641;59.794;17.616;2023-02-18T00:16:39;3.90;99.90
56771;DHT22;42641;59.794;17.616;2023-02-18T00:19:09;3.80;99.90
56771;DHT22;42641;59.794;17.616;2023-02-18T00:21:36;3.70;99.90
56771;DHT22;42641;59.794;17.616;2023-02-18T00:24:04;3.70;99.90
56771;DHT22;42641;59.794;17.616;2023-02-18T00:26:32;3.70;99.90
56771;DHT22;42641;59.794;17.616;2023-02-18T00:28:58;3.60;99.90
56771;DHT22;42641;59.794;17.616;2023-02-18T00:31:28;3.60;99.90
56771;DHT22;42641;59.794;17.616;2023-02-18T00:33:57;3.60;99.90
56771;DHT22;42641;59.794;17.616;2023-02-18T00:36:24;3.60;99.90
56771;DHT22;42641;59.794;17.616;2023-02-18T00:38:54;3.50;99.90
56771;DHT22;42641;59.794;17.616;2023-02-18T00:41:22;3.40;99.90
56771;DHT22;42641;59.794;17.616;2023-02-18T00:43:49;3.40;99.90
56771;DHT22;42641;59.794;17.616;2023-02-18T00:46:15;3.30;99.90
56771;DHT22;42641;59.794;17.616;2023-02-18T00:48:42;3.30;99.90
56771;DHT22;42641;59.794;17.616;2023-02-18T00:51:09;3.30;99.90
56771;DHT22;42641;59.794;17.616;2023-02-18T00:53:36;3.20;99.90
56771;DHT22;42641;59.794;17.616;2023-02-18T00:56:04;3.10;99.90
56771;DHT22;42641;59.794;17.616;2023-02-18T00:58:30;3.10;99.90
56771;DHT22;42641;59.794;17.616;2023-02-18T01:00:58;3.10;99.90
56771;DHT22;42641;59.794;17.616;2023-02-18T01:03:25;3.10;99.90
56771;DHT22;42641;59.794;17.616;2023-02-18T01:05:52;3.00;99.90
56771;DHT22;42641;59.794;17.616;2023-02-18T01:08:20;3.00;99.90
56771;DHT22;42641;59.794;17.616;2023-02-18T01:10:48;3.00;99.90
56771;DHT22;42641;59.794;17.616;2023-02-18T01:13:18;2.90;99.90
56771;DHT22;42641;59.794;17.616;2023-02-18T01:15:44;2.90;99.90
56771;DHT22;42641;59.794;17.616;2023-02-18T01:18:12;2.80;99.90
56771;DHT22;42641;59.794;17.616;2023-02-18T01:20:40;2.70;99.90
56771;DHT22;42641;59.794;17.616;2023-02-18T01:23:07;2.70;99.90
56771;DHT22;42641;59.794;17.616;2023-02-18T01:25:35;2.60;99.90
56771;DHT22;42641;59.794;17.616;2023-02-18T01:28:02;2.60;99.90
56771;DHT22;42641;59.794;17.616;2023-02-18T01:30:29;2.60;99.90
56771;DHT22;42641;59.794;17.616;2023-02-18T01:32:57;2.60;99.90
56771;DHT22;42641;59.794;17.616;2023-02-18T01:35:23;2.60;99.90
56771;DHT22;42641;59.794;17.616;2023-02-18T01:37:50;2.50;99.90
56771;DHT22;42641;59.794;17.616;2023-02-18T01:40:20;2.60;99.90
56771;DHT22;42641;59.794;17.616;2023-02-18T01:42:48;2.50;99.90
56771;DHT22;42641;59.794;17.616;2023-02-18T01:48:17;2.50;99.90
56771;DHT22;42641;59.794;17.616;2023-02-18T01:51:13;2.50;99.90
56771;DHT22;42641;59.794;17.616;2023-02-18T01:56:27;2.50;99.90
56771;DHT22;42641;59.794;17.616;2023-02-18T01:58:56;2.50;99.90
56771;DHT22;42641;59.794;17.616;2023-02-18T02:01:24;2.50;99.90
56771;DHT22;42641;59.794;17.616;2023-02-18T02:03:51;2.50;99.90
56771;DHT22;42641;59.794;17.616;2023-02-18T02:06:20;2.50;99.90
56771;DHT22;42641;59.794;17.616;2023-02-18T02:08:51;2.50;99.90
56771;DHT22;42641;59.794;17.616;2023-02-18T02:11:33;2.50;99.90
56771;DHT22;42641;59.794;17.616;2023-02-18T02:17:06;2.50;99.90
56771;DHT22;42641;59.794;17.616;2023-02-18T02:19:49;2.50;99.90
56771;DHT22;42641;59.794;17.616;2023-02-18T02:25:48;2.60;99.90
56771;DHT22;42641;59.794;17.616;2023-02-18T02:39:29;2.60;99.90
56771;DHT22;42641;59.794;17.616;2023-02-18T02:42:08;2.50;99.90
56771;DHT22;42641;59.794;17.616;2023-02-18T02:47:25;2.50;99.90
56771;DHT22;42641;59.794;17.616;2023-02-18T02:49:59;2.50;99.90
56771;DHT22;42641;59.794;17.616;2023-02-18T02:52:36;2.50;99.90
56771;DHT22;42641;59.794;17.616;2023-02-18T02:55:08;2.60;99.90
56771;DHT22;42641;59.794;17.616;2023-02-18T02:57:42;2.60;99.90
56771;DHT22;42641;59.794;17.616;2023-02-18T03:00:15;2.60;99.90
56771;DHT22;42641;59.794;17.616;2023-02-18T03:08:51;2.60;99.90
56771;DHT22;42641;59.794;17.616;2023-02-18T03:11:21;2.60;99.90
56771;DHT22;42641;59.794;17.616;2023-02-18T03:14:28;2.60;99.90
56771;DHT22;42641;59.794;17.616;2023-02-18T03:17:04;2.60;99.90
56771;DHT22;42641;59.794;17.616;2023-02-18T03:19:37;2.50;99.90
56771;DHT22;42641;59.794;17.616;2023-02-18T03:22:12;2.50;99.90
56771;DHT22;42641;59.794;17.616;2023-02-18T03:24:43;2.50;99.90
56771;DHT22;42641;59.794;17.616;2023-02-18T03:27:47;2.50;99.90
56771;DHT22;42641;59.794;17.616;2023-02-18T03:32:54;2.40;99.90
56771;DHT22;42641;59.794;17.616;2023-02-18T03:35:24;2.40;99.90
56771;DHT22;42641;59.794;17.616;2023-02-18T03:37:58;2.40;99.90
56771;DHT22;42641;59.794;17.616;2023-02-18T03:40:30;2.40;99.90
56771;DHT22;42641;59.794;17.616;2023-02-18T03:42:58;2.40;99.90
56771;DHT22;42641;59.794;17.616;2023-02-18T03:45:25;2.40;99.90
56771;DHT22;42641;59.794;17.616;2023-02-18T03:47:52;2.40;99.90
56771;DHT22;42641;59.794;17.616;2023-02-18T03:50:19;2.30;99.90
56771;DHT22;42641;59.794;17.616;2023-02-18T03:52:45;2.30;99.90
56771;DHT22;42641;59.794;17.616;2023-02-18T03:55:12;2.30;99.90
56771;DHT22;42641;59.794;17.616;2023-02-18T03:57:38;2.30;99.90
56771;DHT22;42641;59.794;17.616;2023-02-18T04:00:05;2.30;99.90
56771;DHT22;42641;59.794;17.616;2023-02-18T04:02:39;2.30;99.90
56771;DHT22;42641;59.794;17.616;2023-02-18T04:05:06;2.30;99.90
56771;DHT22;42641;59.794;17.616;2023-02-18T04:07:33;2.30;99.90
56771;DHT22;42641;59.794;17.616;2023-02-18T04:10:00;2.20;99.90
56771;DHT22;42641;59.794;17.616;2023-02-18T04:12:26;2.20;99.90
56771;DHT22;42641;59.794;17.616;2023-02-18T04:14:53;2.20;99.90
56771;DHT22;42641;59.794;17.616;2023-02-18T04:17:19;2.20;99.90
56771;DHT22;42641;59.794;17.616;2023-02-18T04:19:45;2.20;99.90
56771;DHT22;42641;59.794;17.616;2023-02-18T04:22:12;2.20;99.90
56771;DHT22;42641;59.794;17.616;2023-02-18T04:24:38;2.20;99.90
56771;DHT22;42641;59.794;17.616;2023-02-18T04:27:05;2.20;99.90
56771;DHT22;42641;59.794;17.616;2023-02-18T04:29:31;2.30;99.90
56771;DHT22;42641;59.794;17.616;2023-02-18T04:31:57;2.30;99.90
56771;DHT22;42641;59.794;17.616;2023-02-18T04:34:24;2.30;99.90
56771;DHT22;42641;59.794;17.616;2023-02-18T04:36:51;2.30;99.90
56771;DHT22;42641;59.794;17.616;2023-02-18T04:39:17;2.30;99.90
56771;DHT22;42641;59.794;17.616;2023-02-18T04:41:44;2.30;99.90
56771;DHT22;42641;59.794;17.616;2023-02-18T04:44:10;2.30;99.90
56771;DHT22;42641;59.794;17.616;2023-02-18T04:46:36;2.30;99.90
56771;DHT22;42641;59.794;17.616;2023-02-18T04:49:03;2.30;99.90
56771;DHT22;42641;59.794;17.616;2023-02-18T04:51:29;2.30;99.90
56771;DHT22;42641;59.794;17.616;2023-02-18T04:53:55;2.30;99.90
56771;DHT22;42641;59.794;17.616;2023-02-18T04:56:22;2.30;99.90
56771;DHT22;42641;59.794;17.616;2023-02-18T04:58:48;2.40;99.90
56771;DHT22;42641;59.794;17.616;2023-02-18T05:01:14;2.40;99.90
56771;DHT22;42641;59.794;17.616;2023-02-18T05:03:41;2.40;99.90
56771;DHT22;42641;59.794;17.616;2023-02-18T05:06:07;2.40;99.90
56771;DHT22;42641;59.794;17.616;2023-02-18T05:08:33;2.40;99.90
56771;DHT22;42641;59.794;17.616;2023-02-18T05:11:04;2.40;99.90
56771;DHT22;42641;59.794;17.616;2023-02-18T05:13:31;2.50;99.90
56771;DHT22;42641;59.794;17.616;2023-02-18T05:15:59;2.40;99.90
56771;DHT22;42641;59.794;17.616;2023-02-18T05:18:25;2.50;99.90
56771;DHT22;42641;59.794;17.616;2023-02-18T05:20:52;2.50;99.90
56771;DHT22;42641;59.794;17.616;2023-02-18T05:23:18;2.50;99.90
56771;DHT22;42641;59.794;17.616;2023-02-18T05:25:46;2.50;99.90
56771;DHT22;42641;59.794;17.616;2023-02-18T05:28:13;2.50;99.90
56771;DHT22;42641;59.794;17.616;2023-02-18T05:30:39;2.50;99.90
56771;DHT22;42641;59.794;17.616;2023-02-18T05:33:05;2.50;99.90
56771;DHT22;42641;59.794;17.616;2023-02-18T05:35:32;2.50;99.90
56771;DHT22;42641;59.794;17.616;2023-02-18T05:37:58;2.50;99.90
56771;DHT22;42641;59.794;17.616;2023-02-18T05:40:24;2.50;99.90
56771;DHT22;42641;59.794;17.616;2023-02-18T05:42:51;2.40;99.90
56771;DHT22;42641;59.794;17.616;2023-02-18T05:45:17;2.40;99.90
56771;DHT22;42641;59.794;17.616;2023-02-18T05:47:44;2.50;99.90
56771;DHT22;42641;59.794;17.616;2023-02-18T05:50:10;2.40;99.90
56771;DHT22;42641;59.794;17.616;2023-02-18T05:52:36;2.40;99.90
56771;DHT22;42641;59.794;17.616;2023-02-18T05:55:03;2.40;99.90
56771;DHT22;42641;59.794;17.616;2023-02-18T05:57:29;2.40;99.90
56771;DHT22;42641;59.794;17.616;2023-02-18T05:59:56;2.40;99.90
56771;DHT22;42641;59.794;17.616;2023-02-18T06:02:22;2.40;99.90
56771;DHT22;42641;59.794;17.616;2023-02-18T06:04:49;2.40;99.90
56771;DHT22;42641;59.794;17.616;2023-02-18T06:07:15;2.40;99.90
56771;DHT22;42641;59.794;17.616;2023-02-18T06:09:42;2.30;99.90
56771;DHT22;42641;59.794;17.616;2023-02-18T06:12:08;2.40;99.90
56771;DHT22;42641;59.794;17.616;2023-02-18T06:14:34;2.40;99.90
56771;DHT22;42641;59.794;17.616;2023-02-18T06:17:01;2.40;99.90
56771;DHT22;42641;59.794;17.616;2023-02-18T06:19:27;2.40;99.90
56771;DHT22;42641;59.794;17.616;2023-02-18T06:21:53;2.40;99.90
56771;DHT22;42641;59.794;17.616;2023-02-18T06:24:21;2.40;99.90
56771;DHT22;42641;59.794;17.616;2023-02-18T06:26:47;2.40;99.90
56771;DHT22;42641;59.794;17.616;2023-02-18T06:29:13;2.40;99.90
56771;DHT22;42641;59.794;17.616;2023-02-18T06:31:40;2.40;99.90
56771;DHT22;42641;59.794;17.616;2023-02-18T06:34:06;2.40;99.90
56771;DHT22;42641;59.794;17.616;2023-02-18T06:36:32;2.40;99.90
56771;DHT22;42641;59.794;17.616;2023-02-18T06:39:02;2.40;99.90
56771;DHT22;42641;59.794;17.616;2023-02-18T06:41:29;2.40;99.90
56771;DHT22;42641;59.794;17.616;2023-02-18T06:43:55;2.40;99.90
56771;DHT22;42641;59.794;17.616;2023-02-18T06:46:22;2.40;99.90
56771;DHT22;42641;59.794;17.616;2023-02-18T06:48:48;2.40;99.90
56771;DHT22;42641;59.794;17.616;2023-02-18T06:51:15;2.40;99.90
56771;DHT22;42641;59.794;17.616;2023-02-18T06:53:42;2.40;99.90
56771;DHT22;42641;59.794;17.616;2023-02-18T06:56:09;2.40;99.90
56771;DHT22;42641;59.794;17.616;2023-02-18T06:58:35;2.40;99.90
56771;DHT22;42641;59.794;17.616;2023-02-18T07:01:02;2.40;99.90
56771;DHT22;42641;59.794;17.616;2023-02-18T07:03:29;2.50;99.90
56771;DHT22;42641;59.794;17.616;2023-02-18T07:05:55;2.50;99.90
56771;DHT22;42641;59.794;17.616;2023-02-18T07:08:22;2.40;99.90
56771;DHT22;42641;59.794;17.616;2023-02-18T07:10:48;2.50;99.90
56771;DHT22;42641;59.794;17.616;2023-02-18T07:13:15;2.50;99.90
56771;DHT22;42641;59.794;17.616;2023-02-18T07:15:41;2.40;99.90
56771;DHT22;42641;59.794;17.616;2023-02-18T07:18:08;2.50;99.90
56771;DHT22;42641;59.794;17.616;2023-02-18T07:20:34;2.50;99.90
56771;DHT22;42641;59.794;17.616;2023-02-18T07:23:01;2.50;99.90
56771;DHT22;42641;59.794;17.616;2023-02-18T07:25:27;2.50;99.90
56771;DHT22;42641;59.794;17.616;2023-02-18T07:27:53;2.50;99.90
56771;DHT22;42641;59.794;17.616;2023-02-18T07:30:20;2.50;99.90
56771;DHT22;42641;59.794;17.616;2023-02-18T07:32:46;2.50;99.90
56771;DHT22;42641;59.794;17.616;2023-02-18T07:35:14;2.50;99.90
56771;DHT22;42641;59.794;17.616;2023-02-18T07:37:45;2.50;99.90
56771;DHT22;42641;59.794;17.616;2023-02-18T07:40:15;2.50;99.90
56771;DHT22;42641;59.794;17.616;2023-02-18T07:42:42;2.60;99.90
56771;DHT22;42641;59.794;17.616;2023-02-18T07:45:10;2.60;99.90
56771;DHT22;42641;59.794;17.616;2023-02-18T07:47:36;2.50;99.90
56771;DHT22;42641;59.794;17.616;2023-02-18T07:50:03;2.50;99.90
56771;DHT22;42641;59.794;17.616;2023-02-18T07:52:30;2.50;99.90
56771;DHT22;42641;59.794;17.616;2023-02-18T07:54:57;2.40;99.90
56771;DHT22;42641;59.794;17.616;2023-02-18T07:57:23;2.50;99.90
56771;DHT22;42641;59.794;17.616;2023-02-18T07:59:49;2.50;99.90
56771;DHT22;42641;59.794;17.616;2023-02-18T08:02:19;2.50;99.90
56771;DHT22;42641;59.794;17.616;2023-02-18T08:04:46;2.60;99.90
56771;DHT22;42641;59.794;17.616;2023-02-18T08:07:15;2.60;99.90
56771;DHT22;42641;59.794;17.616;2023-02-18T08:09:41;2.60;99.90
56771;DHT22;42641;59.794;17.616;2023-02-18T08:12:08;2.70;99.90
56771;DHT22;42641;59.794;17.616;2023-02-18T08:14:35;2.70;99.90
56771;DHT22;42641;59.794;17.616;2023-02-18T08:17:01;2.70;99.90
56771;DHT22;42641;59.794;17.616;2023-02-18T08:19:28;2.80;99.90
56771;DHT22;42641;59.794;17.616;2023-02-18T08:21:54;2.80;99.90
56771;DHT22;42641;59.794;17.616;2023-02-18T08:24:20;2.90;99.90
56771;DHT22;42641;59.794;17.616;2023-02-18T08:26:47;2.90;99.90
56771;DHT22;42641;59.794;17.616;2023-02-18T08:29:13;2.90;99.90
56771;DHT22;42641;59.794;17.616;2023-02-18T08:31:39;2.80;99.90
56771;DHT22;42641;59.794;17.616;2023-02-18T08:34:06;2.90;99.90
56771;DHT22;42641;59.794;17.616;2023-02-18T08:36:35;2.90;99.90
56771;DHT22;42641;59.794;17.616;2023-02-18T08:39:01;2.90;99.90
56771;DHT22;42641;59.794;17.616;2023-02-18T08:41:27;3.00;99.90
56771;DHT22;42641;59.794;17.616;2023-02-18T08:43:54;3.10;99.90
56771;DHT22;42641;59.794;17.616;2023-02-18T08:46:20;3.20;99.90
56771;DHT22;42641;59.794;17.616;2023-02-18T08:48:47;3.20;99.90
56771;DHT22;42641;59.794;17.616;2023-02-18T08:51:16;3.30;99.90
56771;DHT22;42641;59.794;17.616;2023-02-18T08:53:42;3.40;99.90
56771;DHT22;42641;59.794;17.616;2023-02-18T08:56:10;3.30;99.90
56771;DHT22;42641;59.794;17.616;2023-02-18T08:58:38;3.30;99.90
56771;DHT22;42641;59.794;17.616;2023-02-18T09:01:06;3.30;99.90
56771;DHT22;42641;59.794;17.616;2023-02-18T09:03:33;3.30;99.90
56771;DHT22;42641;59.794;17.616;2023-02-18T09:06:00;3.40;99.90
56771;DHT22;42641;59.794;17.616;2023-02-18T09:08:27;3.40;99.90
56771;DHT22;42641;59.794;17.616;2023-02-18T09:10:58;3.40;99.90
56771;DHT22;42641;59.794;17.616;2023-02-18T09:13:25;3.50;99.90
56771;DHT22;42641;59.794;17.616;2023-02-18T09:15:57;3.50;99.90
56771;DHT22;42641;59.794;17.616;2023-02-18T09:18:23;3.50;99.90
56771;DHT22;42641;59.794;17.616;2023-02-18T09:20:50;3.60;99.90
56771;DHT22;42641;59.794;17.616;2023-02-18T09:23:16;3.60;99.90
56771;DHT22;42641;59.794;17.616;2023-02-18T09:25:43;3.60;99.90
56771;DHT22;42641;59.794;17.616;2023-02-18T09:28:09;3.70;99.90
56771;DHT22;42641;59.794;17.616;2023-02-18T09:30:35;3.80;99.90
56771;DHT22;42641;59.794;17.616;2023-02-18T09:33:02;3.80;99.90
56771;DHT22;42641;59.794;17.616;2023-02-18T09:35:28;3.70;99.90
56771;DHT22;42641;59.794;17.616;2023-02-18T09:37:55;3.80;99.90
56771;DHT22;42641;59.794;17.616;2023-02-18T09:40:27;3.80;99.90
56771;DHT22;42641;59.794;17.616;2023-02-18T09:42:55;3.90;99.90
56771;DHT22;42641;59.794;17.616;2023-02-18T09:45:23;3.90;99.90
56771;DHT22;42641;59.794;17.616;2023-02-18T09:47:49;4.00;99.90
56771;DHT22;42641;59.794;17.616;2023-02-18T09:50:21;4.10;99.90
56771;DHT22;42641;59.794;17.616;2023-02-18T09:52:49;4.20;99.90
56771;DHT22;42641;59.794;17.616;2023-02-18T09:55:22;4.40;99.90
56771;DHT22;42641;59.794;17.616;2023-02-18T09:57:55;4.40;99.90
56771;DHT22;42641;59.794;17.616;2023-02-18T10:00:32;4.40;99.90
56771;DHT22;42641;59.794;17.616;2023-02-18T10:03:16;4.40;99.90
56771;DHT22;42641;59.794;17.616;2023-02-18T10:05:59;4.40;99.90
56771;DHT22;42641;59.794;17.616;2023-02-18T10:08:35;4.40;99.90
56771;DHT22;42641;59.794;17.616;2023-02-18T10:11:03;4.50;99.90
56771;DHT22;42641;59.794;17.616;2023-02-18T10:13:32;4.50;99.90
56771;DHT22;42641;59.794;17.616;2023-02-18T10:15:59;4.60;99.90
56771;DHT22;42641;59.794;17.616;2023-02-18T10:18:31;4.60;99.90
56771;DHT22;42641;59.794;17.616;2023-02-18T10:21:23;4.60;99.90
56771;DHT22;42641;59.794;17.616;2023-02-18T10:26:34;4.70;99.90
56771;DHT22;42641;59.794;17.616;2023-02-18T10:29:02;4.80;99.90
56771;DHT22;42641;59.794;17.616;2023-02-18T10:31:41;4.80;99.90
56771;DHT22;42641;59.794;17.616;2023-02-18T10:37:03;4.90;99.90
56771;DHT22;42641;59.794;17.616;2023-02-18T10:42:17;5.00;99.90
56771;DHT22;42641;59.794;17.616;2023-02-18T10:50:39;5.10;99.90
56771;DHT22;42641;59.794;17.616;2023-02-18T10:55:49;5.20;99.90
56771;DHT22;42641;59.794;17.616;2023-02-18T10:58:45;5.20;99.90
56771;DHT22;42641;59.794;17.616;2023-02-18T11:01:17;5.20;99.90
56771;DHT22;42641;59.794;17.616;2023-02-18T11:03:50;5.20;99.90
56771;DHT22;42641;59.794;17.616;2023-02-18T11:06:37;5.20;99.90
56771;DHT22;42641;59.794;17.616;2023-02-18T11:09:05;5.20;99.90
56771;DHT22;42641;59.794;17.616;2023-02-18T11:11:36;5.20;99.90
56771;DHT22;42641;59.794;17.616;2023-02-18T11:14:07;5.20;99.90
56771;DHT22;42641;59.794;17.616;2023-02-18T11:16:42;5.20;99.90
56771;DHT22;42641;59.794;17.616;2023-02-18T11:19:35;5.10;99.90
56771;DHT22;42641;59.794;17.616;2023-02-18T11:22:22;5.20;99.90
56771;DHT22;42641;59.794;17.616;2023-02-18T11:24:54;5.20;99.90
56771;DHT22;42641;59.794;17.616;2023-02-18T11:30:04;5.20;99.90
56771;DHT22;42641;59.794;17.616;2023-02-18T11:32:34;5.30;99.90
56771;DHT22;42641;59.794;17.616;2023-02-18T11:35:03;5.20;99.90
56771;DHT22;42641;59.794;17.616;2023-02-18T11:37:32;5.30;99.90
56771;DHT22;42641;59.794;17.616;2023-02-18T11:40:02;5.30;99.90
56771;DHT22;42641;59.794;17.616;2023-02-18T11:42:30;5.30;99.90
56771;DHT22;42641;59.794;17.616;2023-02-18T11:44:58;5.30;99.90
56771;DHT22;42641;59.794;17.616;2023-02-18T11:47:35;5.30;99.90
56771;DHT22;42641;59.794;17.616;2023-02-18T11:50:15;5.50;99.90
56771;DHT22;42641;59.794;17.616;2023-02-18T11:52:47;5.60;99.90
56771;DHT22;42641;59.794;17.616;2023-02-18T11:57:59;5.70;99.90
56771;DHT22;42641;59.794;17.616;2023-02-18T12:03:41;5.80;99.90
56771;DHT22;42641;59.794;17.616;2023-02-18T12:06:37;5.80;99.90
56771;DHT22;42641;59.794;17.616;2023-02-18T12:09:29;5.80;99.90
56771;DHT22;42641;59.794;17.616;2023-02-18T12:12:00;5.90;99.90
56771;DHT22;42641;59.794;17.616;2023-02-18T12:14:28;6.00;99.90
56771;DHT22;42641;59.794;17.616;2023-02-18T12:20:58;6.00;99.90
56771;DHT22;42641;59.794;17.616;2023-02-18T12:23:17;5.90;99.90
56771;DHT22;42641;59.794;17.616;2023-02-18T12:29:11;5.80;99.90
56771;DHT22;42641;59.794;17.616;2023-02-18T12:45:49;6.10;99.90
56771;DHT22;42641;59.794;17.616;2023-02-18T12:53:53;5.90;99.90
56771;DHT22;42641;59.794;17.616;2023-02-18T12:59:34;6.00;99.90
56771;DHT22;42641;59.794;17.616;2023-02-18T13:11:06;5.80;99.90
56771;DHT22;42641;59.794;17.616;2023-02-18T13:16:36;5.80;99.90
56771;DHT22;42641;59.794;17.616;2023-02-18T13:19:41;5.80;99.90
56771;DHT22;42641;59.794;17.616;2023-02-18T13:22:02;5.90;99.90
56771;DHT22;42641;59.794;17.616;2023-02-18T13:24:38;6.00;99.90
56771;DHT22;42641;59.794;17.616;2023-02-18T13:27:30;5.90;99.90
56771;DHT22;42641;59.794;17.616;2023-02-18T13:32:39;5.90;99.90
56771;DHT22;42641;59.794;17.616;2023-02-18T13:35:27;5.80;99.90
56771;DHT22;42641;59.794;17.616;2023-02-18T13:38:57;5.80;99.90
56771;DHT22;42641;59.794;17.616;2023-02-18T13:40:50;5.90;99.90
56771;DHT22;42641;59.794;17.616;2023-02-18T13:43:20;6.20;99.90
56771;DHT22;42641;59.794;17.616;2023-02-18T13:48:34;6.30;99.90
56771;DHT22;42641;59.794;17.616;2023-02-18T13:51:05;6.30;99.90
56771;DHT22;42641;59.794;17.616;2023-02-18T13:53:35;6.40;99.90
56771;DHT22;42641;59.794;17.616;2023-02-18T13:59:36;6.20;99.90
56771;DHT22;42641;59.794;17.616;2023-02-18T14:02:32;6.00;99.90
56771;DHT22;42641;59.794;17.616;2023-02-18T14:10:24;5.80;99.90
56771;DHT22;42641;59.794;17.616;2023-02-18T14:17:49;5.70;99.90
56771;DHT22;42641;59.794;17.616;2023-02-18T14:28:39;5.80;99.90
56771;DHT22;42641;59.794;17.616;2023-02-18T14:33:47;6.10;99.90
56771;DHT22;42641;59.794;17.616;2023-02-18T14:36:33;6.30;99.90
56771;DHT22;42641;59.794;17.616;2023-02-18T14:45:11;6.80;99.90
56771;DHT22;42641;59.794;17.616;2023-02-18T14:50:20;6.60;99.90
56771;DHT22;42641;59.794;17.616;2023-02-18T14:52:56;6.40;99.90
56771;DHT22;42641;59.794;17.616;2023-02-18T14:55:29;6.10;99.90
56771;DHT22;42641;59.794;17.616;2023-02-18T14:58:03;5.90;99.90
56771;DHT22;42641;59.794;17.616;2023-02-18T15:00:35;5.70;99.90
56771;DHT22;42641;59.794;17.616;2023-02-18T15:03:15;5.60;99.90
56771;DHT22;42641;59.794;17.616;2023-02-18T15:05:43;5.50;99.90
56771;DHT22;42641;59.794;17.616;2023-02-18T15:08:20;5.40;99.90
56771;DHT22;42641;59.794;17.616;2023-02-18T15:11:03;5.30;99.90
56771;DHT22;42641;59.794;17.616;2023-02-18T15:13:34;5.20;99.90
56771;DHT22;42641;59.794;17.616;2023-02-18T15:16:04;5.20;99.90
56771;DHT22;42641;59.794;17.616;2023-02-18T15:18:47;5.10;99.90
56771;DHT22;42641;59.794;17.616;2023-02-18T15:21:23;5.10;99.90
56771;DHT22;42641;59.794;17.616;2023-02-18T15:23:51;5.00;99.90
56771;DHT22;42641;59.794;17.616;2023-02-18T15:26:17;4.90;99.90
56771;DHT22;42641;59.794;17.616;2023-02-18T15:29:02;4.80;99.90
56771;DHT22;42641;59.794;17.616;2023-02-18T15:31:34;4.80;99.90
56771;DHT22;42641;59.794;17.616;2023-02-18T15:34:01;4.80;99.90
56771;DHT22;42641;59.794;17.616;2023-02-18T15:36:28;4.70;99.90
56771;DHT22;42641;59.794;17.616;2023-02-18T15:38:55;4.70;99.90
56771;DHT22;42641;59.794;17.616;2023-02-18T15:41:22;4.60;99.90
56771;DHT22;42641;59.794;17.616;2023-02-18T15:43:54;4.60;99.90
56771;DHT22;42641;59.794;17.616;2023-02-18T15:46:21;4.50;99.90
56771;DHT22;42641;59.794;17.616;2023-02-18T15:48:52;4.50;99.90
56771;DHT22;42641;59.794;17.616;2023-02-18T15:51:25;4.50;99.90
56771;DHT22;42641;59.794;17.616;2023-02-18T15:54:00;4.50;99.90
56771;DHT22;42641;59.794;17.616;2023-02-18T15:56:33;4.40;99.90
56771;DHT22;42641;59.794;17.616;2023-02-18T16:01:50;4.30;99.90
56771;DHT22;42641;59.794;17.616;2023-02-18T16:04:19;4.30;99.90
56771;DHT22;42641;59.794;17.616;2023-02-18T16:06:50;4.20;99.90
56771;DHT22;42641;59.794;17.616;2023-02-18T16:09:30;4.20;99.90
56771;DHT22;42641;59.794;17.616;2023-02-18T16:11:59;4.20;99.90
56771;DHT22;42641;59.794;17.616;2023-02-18T16:14:43;4.10;99.90
56771;DHT22;42641;59.794;17.616;2023-02-18T16:20:01;4.00;99.90
56771;DHT22;42641;59.794;17.616;2023-02-18T16:31:05;4.00;99.90
56771;DHT22;42641;59.794;17.616;2023-02-18T16:33:31;3.90;99.90
56771;DHT22;42641;59.794;17.616;2023-02-18T16:35:58;3.90;99.90
56771;DHT22;42641;59.794;17.616;2023-02-18T16:38:24;3.80;99.90
56771;DHT22;42641;59.794;17.616;2023-02-18T16:40:52;3.80;99.90
56771;DHT22;42641;59.794;17.616;2023-02-18T16:43:22;3.80;99.90
56771;DHT22;42641;59.794;17.616;2023-02-18T16:45:55;3.70;99.90
56771;DHT22;42641;59.794;17.616;2023-02-18T16:48:39;3.70;99.90
56771;DHT22;42641;59.794;17.616;2023-02-18T16:51:16;3.70;99.90
56771;DHT22;42641;59.794;17.616;2023-02-18T16:53:43;3.60;99.90
56771;DHT22;42641;59.794;17.616;2023-02-18T16:56:22;3.70;99.90
56771;DHT22;42641;59.794;17.616;2023-02-18T16:58:50;3.60;99.90
56771;DHT22;42641;59.794;17.616;2023-02-18T17:03:55;3.50;99.90
56771;DHT22;42641;59.794;17.616;2023-02-18T17:06:22;3.50;99.90
56771;DHT22;42641;59.794;17.616;2023-02-18T17:08:49;3.50;99.90
56771;DHT22;42641;59.794;17.616;2023-02-18T17:11:25;3.50;99.90
56771;DHT22;42641;59.794;17.616;2023-02-18T17:13:53;3.40;99.90
56771;DHT22;42641;59.794;17.616;2023-02-18T17:16:20;3.30;99.90
56771;DHT22;42641;59.794;17.616;2023-02-18T17:18:47;3.30;99.90
56771;DHT22;42641;59.794;17.616;2023-02-18T17:21:16;3.30;99.90
56771;DHT22;42641;59.794;17.616;2023-02-18T17:23:43;3.30;99.90
56771;DHT22;42641;59.794;17.616;2023-02-18T17:26:16;3.30;99.90
56771;DHT22;42641;59.794;17.616;2023-02-18T17:28:43;3.30;99.90
56771;DHT22;42641;59.794;17.616;2023-02-18T17:31:20;3.30;99.90
56771;DHT22;42641;59.794;17.616;2023-02-18T17:33:49;3.20;99.90
56771;DHT22;42641;59.794;17.616;2023-02-18T17:36:15;3.20;99.90
56771;DHT22;42641;59.794;17.616;2023-02-18T17:38:42;3.10;99.90
56771;DHT22;42641;59.794;17.616;2023-02-18T17:41:10;3.10;99.90
56771;DHT22;42641;59.794;17.616;2023-02-18T17:43:37;3.10;99.90
56771;DHT22;42641;59.794;17.616;2023-02-18T17:46:04;3.10;99.90
56771;DHT22;42641;59.794;17.616;2023-02-18T17:48:31;3.00;99.90
56771;DHT22;42641;59.794;17.616;2023-02-18T17:50:57;3.00;99.90
56771;DHT22;42641;59.794;17.616;2023-02-18T17:53:24;3.00;99.90
56771;DHT22;42641;59.794;17.616;2023-02-18T17:55:50;3.00;99.90
56771;DHT22;42641;59.794;17.616;2023-02-18T17:58:18;3.00;99.90
56771;DHT22;42641;59.794;17.616;2023-02-18T18:00:54;3.00;99.90
56771;DHT22;42641;59.794;17.616;2023-02-18T18:03:21;3.00;99.90
56771;DHT22;42641;59.794;17.616;2023-02-18T18:05:49;2.90;99.90
56771;DHT22;42641;59.794;17.616;2023-02-18T18:08:17;3.00;99.90
56771;DHT22;42641;59.794;17.616;2023-02-18T18:10:47;2.90;99.90
56771;DHT22;42641;59.794;17.616;2023-02-18T18:13:21;2.80;99.90
56771;DHT22;42641;59.794;17.616;2023-02-18T18:15:48;2.80;99.90
56771;DHT22;42641;59.794;17.616;2023-02-18T18:18:15;2.80;99.90
56771;DHT22;42641;59.794;17.616;2023-02-18T18:20:46;2.70;99.90
56771;DHT22;42641;59.794;17.616;2023-02-18T18:23:14;2.80;99.90
56771;DHT22;42641;59.794;17.616;2023-02-18T18:25:46;2.80;99.90